createdAt,value
2022-09-02T00:01:37.654Z,9.69
2022-09-02T00:04:07.246Z,9.75
2022-09-02T00:06:36.365Z,9.73
2022-09-02T00:09:05.316Z,9.72
2022-09-02T00:11:33.145Z,9.56
2022-09-02T00:14:03.165Z,9.56
2022-09-02T00:16:31.865Z,9.63
2022-09-02T00:18:59.654Z,9.68
2022-09-02T00:21:26.914Z,9.78
2022-09-02T00:23:53.905Z,9.47
2022-09-02T00:26:21.596Z,9.44
2022-09-02T00:28:55.914Z,9.56
2022-09-02T00:31:24.919Z,9.56
2022-09-02T00:33:52.009Z,9.29
2022-09-02T00:36:19.392Z,9.38
2022-09-02T00:38:46.224Z,9.34
2022-09-02T00:41:13.602Z,9.35
2022-09-02T00:43:45.424Z,9.38
2022-09-02T00:46:14.823Z,9.34
2022-09-02T00:48:59.665Z,9.36
2022-09-02T00:51:29.152Z,9.08
2022-09-02T00:53:56.105Z,9.14
2022-09-02T00:56:28.613Z,9.24
2022-09-02T00:58:55.923Z,9.33
2022-09-02T01:01:23.197Z,9.13
2022-09-02T01:03:51.136Z,9.15
2022-09-02T01:06:21.994Z,9.16
2022-09-02T01:08:54.545Z,9.12
2022-09-02T01:11:22.262Z,9.12
2022-09-02T01:13:49.367Z,9.05
2022-09-02T01:16:53.594Z,9.03
2022-09-02T01:19:35.854Z,9.11
2022-09-02T01:22:08.012Z,9.07
2022-09-02T01:24:34.944Z,8.99
2022-09-02T01:27:01.784Z,8.95
2022-09-02T01:29:29.179Z,8.78
2022-09-02T01:31:56.385Z,8.90
2022-09-02T01:34:23.703Z,8.89
2022-09-02T01:36:51.458Z,8.89
2022-09-02T01:39:18.382Z,8.81
2022-09-02T01:41:45.193Z,8.70
2022-09-02T01:44:12.369Z,8.62
2022-09-02T01:46:39.367Z,8.43
2022-09-02T01:49:06.262Z,8.39
2022-09-02T01:51:33.143Z,8.32
2022-09-02T01:53:59.914Z,8.43
2022-09-02T01:56:26.798Z,8.26
2022-09-02T01:58:53.697Z,8.24
2022-09-02T02:01:20.732Z,8.38
2022-09-02T02:03:47.914Z,8.49
2022-09-02T02:06:17.089Z,8.41
2022-09-02T02:08:44.936Z,8.39
2022-09-02T02:11:12.276Z,8.47
2022-09-02T02:13:39.134Z,8.53
2022-09-02T02:16:06.668Z,8.48
2022-09-02T02:18:33.716Z,8.51
2022-09-02T02:21:00.666Z,8.62
2022-09-02T02:23:27.411Z,8.54
2022-09-02T02:25:54.236Z,8.59
2022-09-02T02:28:21.054Z,8.58
2022-09-02T02:30:48.324Z,8.58
2022-09-02T02:33:15.451Z,8.55
2022-09-02T02:35:42.437Z,8.54
2022-09-02T02:38:10.343Z,8.53
2022-09-02T02:40:41.494Z,8.59
2022-09-02T02:43:08.281Z,8.62
2022-09-02T02:45:35.084Z,8.69
2022-09-02T02:48:02.435Z,8.72
2022-09-02T02:50:29.174Z,8.60
2022-09-02T02:52:56.724Z,8.56
2022-09-02T02:55:24.842Z,8.53
2022-09-02T02:57:52.152Z,8.43
2022-09-02T03:00:25.325Z,8.40
2022-09-02T03:02:56.938Z,8.43
2022-09-02T03:05:23.995Z,8.37
2022-09-02T03:07:51.095Z,8.42
2022-09-02T03:10:18.524Z,8.44
2022-09-02T03:12:47.706Z,8.53
2022-09-02T03:15:17.266Z,8.55
2022-09-02T03:17:48.084Z,8.45
2022-09-02T03:20:18.565Z,8.36
2022-09-02T03:22:47.924Z,8.30
2022-09-02T03:25:19.832Z,8.27
2022-09-02T03:27:47.217Z,8.26
2022-09-02T03:30:17.724Z,8.37
2022-09-02T03:32:44.585Z,8.45
2022-09-02T03:35:15.196Z,8.63
2022-09-02T03:37:42.193Z,8.62
2022-09-02T03:40:13.534Z,8.73
2022-09-02T03:42:40.454Z,8.82
2022-09-02T03:45:10.962Z,8.90
2022-09-02T03:47:40.709Z,8.95
2022-09-02T03:50:07.696Z,8.93
2022-09-02T03:52:34.557Z,8.90
2022-09-02T03:55:01.346Z,8.97
2022-09-02T03:57:28.222Z,9.05
2022-09-02T03:59:56.574Z,9.07
2022-09-02T04:02:24.584Z,9.00
2022-09-02T04:04:51.405Z,8.99
2022-09-02T04:07:18.156Z,9.07
2022-09-02T04:09:46.823Z,8.98
2022-09-02T04:12:13.672Z,8.99
2022-09-02T04:14:42.255Z,8.86
2022-09-02T04:17:09.020Z,8.94
2022-09-02T04:19:37.626Z,9.01
2022-09-02T04:22:04.278Z,9.06
2022-09-02T04:24:31.250Z,9.03
2022-09-02T04:27:01.996Z,9.02
2022-09-02T04:29:32.020Z,9.15
2022-09-02T04:31:58.776Z,9.19
2022-09-02T04:34:25.420Z,9.28
2022-09-02T04:36:52.995Z,9.38
2022-09-02T04:39:20.029Z,9.49
2022-09-02T04:41:46.710Z,9.53
2022-09-02T04:44:13.531Z,9.51
2022-09-02T04:46:40.659Z,9.56
2022-09-02T04:49:07.720Z,9.61
2022-09-02T04:51:34.569Z,9.53
2022-09-02T04:54:01.616Z,9.54
2022-09-02T04:56:31.254Z,9.58
2022-09-02T04:58:58.526Z,9.63
2022-09-02T05:01:27.936Z,9.64
2022-09-02T05:03:54.901Z,9.69
2022-09-02T05:06:27.089Z,9.66
2022-09-02T05:08:55.329Z,9.72
2022-09-02T05:11:24.259Z,9.65
2022-09-02T05:13:54.218Z,9.70
2022-09-02T05:16:23.942Z,9.73
2022-09-02T05:18:52.348Z,9.71
2022-09-02T05:21:19.419Z,9.77
2022-09-02T05:23:46.535Z,9.71
2022-09-02T05:26:13.929Z,9.83
2022-09-02T05:28:41.787Z,9.86
2022-09-02T05:31:12.898Z,9.93
2022-09-02T05:33:42.216Z,9.94
2022-09-02T05:36:12.700Z,9.96
2022-09-02T05:38:40.979Z,10.02
2022-09-02T05:41:16.699Z,10.00
2022-09-02T05:43:44.769Z,10.03
2022-09-02T05:46:14.959Z,10.08
2022-09-02T05:49:05.065Z,9.78
2022-09-02T05:51:32.929Z,9.88
2022-09-02T05:54:00.709Z,9.87
2022-09-02T05:56:28.067Z,9.70
2022-09-02T05:58:59.105Z,9.92
2022-09-02T06:01:29.703Z,10.01
2022-09-02T06:03:58.257Z,10.08
2022-09-02T06:06:25.049Z,10.15
2022-09-02T06:08:51.869Z,10.15
2022-09-02T06:11:19.575Z,10.18
2022-09-02T06:13:46.977Z,10.11
2022-09-02T06:16:16.489Z,10.26
2022-09-02T06:18:43.719Z,10.06
2022-09-02T06:21:11.038Z,9.96
2022-09-02T06:23:39.211Z,9.96
2022-09-02T06:26:07.679Z,10.02
2022-09-02T06:28:34.790Z,10.16
2022-09-02T06:31:08.597Z,9.96
2022-09-02T06:33:35.500Z,10.07
2022-09-02T06:36:02.428Z,10.17
2022-09-02T06:38:29.212Z,10.35
2022-09-02T06:40:56.502Z,10.29
2022-09-02T06:43:24.054Z,10.27
2022-09-02T06:45:51.091Z,10.37
2022-09-02T06:48:17.977Z,10.45
2022-09-02T06:50:46.971Z,10.43
2022-09-02T06:53:14.929Z,10.54
2022-09-02T06:55:43.940Z,10.69
2022-09-02T06:58:11.301Z,10.65
2022-09-02T07:00:39.207Z,10.74
2022-09-02T07:03:24.540Z,10.68
2022-09-02T07:06:09.700Z,10.86
2022-09-02T07:08:41.392Z,10.97
2022-09-02T07:11:16.598Z,11.14
2022-09-02T07:13:43.609Z,11.19
2022-09-02T07:16:10.655Z,10.98
2022-09-02T07:18:37.507Z,11.07
2022-09-02T07:21:04.414Z,11.17
2022-09-02T07:23:32.247Z,11.17
2022-09-02T07:25:59.078Z,10.84
2022-09-02T07:28:27.179Z,11.12
2022-09-02T07:30:59.092Z,11.29
2022-09-02T07:33:26.652Z,11.45
2022-09-02T07:35:53.507Z,11.60
2022-09-02T07:38:20.317Z,11.64
2022-09-02T07:40:49.114Z,11.48
2022-09-02T07:43:15.981Z,11.65
2022-09-02T07:45:44.061Z,11.81
2022-09-02T07:48:10.953Z,11.91
2022-09-02T07:50:38.375Z,12.04
2022-09-02T07:53:06.502Z,12.28
2022-09-02T07:55:35.379Z,12.17
2022-09-02T07:58:03.637Z,11.83
2022-09-02T08:00:31.287Z,12.04
2022-09-02T08:02:58.933Z,12.00
2022-09-02T08:05:25.817Z,12.42
2022-09-02T08:07:52.809Z,12.95
2022-09-02T08:10:20.771Z,13.35
2022-09-02T08:12:48.055Z,14.12
2022-09-02T08:15:15.609Z,14.57
2022-09-02T08:17:44.409Z,14.29
2022-09-02T08:20:15.209Z,13.48
2022-09-02T08:22:42.222Z,13.60
2022-09-02T08:25:10.069Z,13.87
2022-09-02T08:27:37.828Z,14.52
2022-09-02T08:30:06.639Z,14.74
2022-09-02T08:32:33.361Z,14.82
2022-09-02T08:35:02.971Z,13.72
2022-09-02T08:37:31.583Z,14.51
2022-09-02T08:39:58.817Z,14.68
2022-09-02T08:42:49.683Z,14.89
2022-09-02T08:45:29.281Z,14.46
2022-09-02T08:48:08.351Z,14.10
2022-09-02T08:50:36.925Z,14.71
2022-09-02T08:53:15.321Z,14.53
2022-09-02T08:55:51.017Z,14.36
2022-09-02T08:58:19.773Z,14.44
2022-09-02T09:00:53.680Z,15.02
2022-09-02T09:03:31.015Z,15.45
2022-09-02T09:06:22.838Z,15.55
2022-09-02T09:09:19.069Z,15.59
2022-09-02T09:11:52.275Z,16.34
2022-09-02T09:14:40.236Z,16.65
2022-09-02T09:17:45.349Z,16.84
2022-09-02T09:20:19.898Z,16.25
2022-09-02T09:22:48.254Z,16.64
2022-09-02T09:25:16.640Z,17.01
2022-09-02T09:27:46.237Z,16.95
2022-09-02T09:30:15.534Z,17.00
2022-09-02T09:32:47.629Z,17.46
2022-09-02T09:35:18.938Z,18.10
2022-09-02T09:37:53.291Z,17.44
2022-09-02T09:40:26.174Z,17.11
2022-09-02T09:43:14.356Z,17.89
2022-09-02T09:45:50.115Z,18.17
2022-09-02T09:48:16.888Z,17.46
2022-09-02T09:50:44.856Z,17.35
2022-09-02T09:53:32.428Z,17.73
2022-09-02T09:56:06.810Z,18.17
2022-09-02T09:58:46.938Z,18.77
2022-09-02T10:01:33.456Z,18.44
2022-09-02T10:04:44.173Z,18.11
2022-09-02T10:07:13.661Z,18.46
2022-09-02T10:09:40.679Z,18.10
2022-09-02T10:12:09.742Z,18.58
2022-09-02T10:14:47.597Z,18.19
2022-09-02T10:17:54.330Z,18.86
2022-09-02T10:21:13.847Z,18.51
2022-09-02T10:23:51.509Z,19.23
2022-09-02T10:26:39.160Z,18.64
2022-09-02T10:29:31.255Z,19.68
2022-09-02T10:32:00.990Z,20.11
2022-09-02T10:34:37.045Z,20.40
2022-09-02T10:37:09.797Z,20.46
2022-09-02T10:40:14.237Z,20.26
2022-09-02T10:42:56.246Z,19.88
2022-09-02T10:45:38.168Z,20.33
2022-09-02T10:48:42.438Z,20.22
2022-09-02T10:51:29.108Z,20.54
2022-09-02T10:54:14.340Z,20.38
2022-09-02T10:57:02.377Z,20.71
2022-09-02T10:59:36.997Z,20.64
2022-09-02T11:02:14.458Z,21.01
2022-09-02T11:04:56.737Z,20.91
2022-09-02T11:07:51.446Z,21.33
2022-09-02T11:10:24.139Z,21.02
2022-09-02T11:13:22.295Z,21.07
2022-09-02T11:15:50.267Z,21.07
2022-09-02T11:18:28.134Z,21.44
2022-09-02T11:21:03.848Z,21.30
2022-09-02T11:23:44.397Z,21.31
2022-09-02T11:26:25.429Z,21.34
2022-09-02T11:28:59.989Z,21.26
2022-09-02T11:31:39.069Z,21.52
2022-09-02T11:34:06.136Z,21.33
2022-09-02T11:36:38.597Z,21.55
2022-09-02T11:39:11.447Z,21.37
2022-09-02T11:41:53.461Z,21.64
2022-09-02T11:45:00.568Z,21.18
2022-09-02T11:47:27.331Z,21.54
2022-09-02T11:50:09.783Z,21.72
2022-09-02T11:52:58.188Z,21.32
2022-09-02T11:55:31.197Z,21.29
2022-09-02T11:57:59.228Z,21.55
2022-09-02T12:00:36.729Z,21.60
2022-09-02T12:03:16.726Z,21.85
2022-09-02T12:06:09.195Z,21.82
2022-09-02T12:08:37.107Z,21.94
2022-09-02T12:11:06.885Z,22.21
2022-09-02T12:13:41.274Z,22.24
2022-09-02T12:16:41.041Z,21.78
2022-09-02T12:19:09.050Z,22.31
2022-09-02T12:21:36.478Z,22.19
2022-09-02T12:24:08.498Z,22.39
2022-09-02T12:26:41.178Z,22.45
2022-09-02T12:29:20.530Z,22.24
2022-09-02T12:31:49.148Z,22.53
2022-09-02T12:34:22.418Z,22.78
2022-09-02T12:36:59.707Z,22.75
2022-09-02T12:39:30.733Z,22.63
2022-09-02T12:42:06.510Z,22.93
2022-09-02T12:44:39.499Z,22.77
2022-09-02T12:47:09.579Z,22.79
2022-09-02T12:49:42.249Z,22.54
2022-09-02T12:52:13.718Z,22.77
2022-09-02T12:54:43.362Z,22.92
2022-09-02T12:57:11.574Z,23.24
2022-09-02T12:59:39.788Z,23.26
2022-09-02T13:02:33.857Z,22.98
2022-09-02T13:05:16.166Z,23.21
2022-09-02T13:08:09.429Z,22.84
2022-09-02T13:11:23.846Z,22.81
2022-09-02T13:14:16.257Z,22.83
2022-09-02T13:17:19.034Z,22.97
2022-09-02T13:20:09.232Z,22.86
2022-09-02T13:23:00.977Z,22.92
2022-09-02T13:25:36.809Z,23.14
2022-09-02T13:28:34.043Z,23.27
2022-09-02T13:31:06.619Z,23.51
2022-09-02T13:33:33.548Z,23.46
2022-09-02T13:36:00.518Z,23.62
2022-09-02T13:38:29.453Z,23.32
2022-09-02T13:40:56.991Z,23.10
2022-09-02T13:43:27.070Z,23.29
2022-09-02T13:45:56.249Z,23.27
2022-09-02T13:48:23.827Z,22.82
2022-09-02T13:50:53.958Z,23.07
2022-09-02T13:56:27.706Z,23.18
2022-09-02T13:58:58.326Z,23.16
2022-09-02T14:01:29.653Z,23.35
2022-09-02T14:03:58.630Z,23.21
2022-09-02T14:06:37.824Z,23.11
2022-09-02T14:09:11.664Z,22.78
2022-09-02T14:11:49.066Z,22.89
2022-09-02T14:14:18.258Z,22.72
2022-09-02T14:16:45.076Z,22.76
2022-09-02T14:19:18.058Z,22.87
2022-09-02T14:21:53.107Z,23.02
2022-09-02T14:24:26.274Z,22.90
2022-09-02T14:26:57.494Z,22.68
2022-09-02T14:29:25.083Z,22.74
2022-09-02T14:32:21.968Z,23.04
2022-09-02T14:34:50.160Z,22.89
2022-09-02T14:37:24.226Z,22.92
2022-09-02T14:40:12.928Z,22.97
2022-09-02T14:42:48.817Z,22.71
2022-09-02T14:45:26.077Z,22.64
2022-09-02T14:47:53.255Z,22.53
2022-09-02T14:50:22.756Z,22.57
2022-09-02T14:52:58.766Z,22.65
2022-09-02T14:55:49.068Z,22.40
2022-09-02T14:58:18.099Z,22.50
2022-09-02T15:00:52.263Z,22.54
2022-09-02T15:03:19.902Z,22.32
2022-09-02T15:05:47.077Z,22.26
2022-09-02T15:08:14.539Z,22.13
2022-09-02T15:10:42.359Z,22.00
2022-09-02T15:13:13.029Z,21.88
2022-09-02T15:15:40.777Z,21.64
2022-09-02T15:18:09.032Z,21.84
2022-09-02T15:20:36.149Z,21.62
2022-09-02T15:23:03.417Z,21.58
2022-09-02T15:25:30.730Z,21.31
2022-09-02T15:27:57.548Z,21.34
2022-09-02T15:30:24.437Z,21.47
2022-09-02T15:32:51.717Z,21.48
2022-09-02T15:35:18.549Z,21.49
2022-09-02T15:37:45.346Z,21.26
2022-09-02T15:40:12.327Z,20.96
2022-09-02T15:42:39.608Z,20.74
2022-09-02T15:45:09.141Z,20.55
2022-09-02T15:47:36.831Z,20.54
2022-09-02T15:50:05.439Z,20.35
2022-09-02T15:52:34.655Z,20.42
2022-09-02T15:55:01.598Z,20.10
2022-09-02T15:57:30.090Z,19.77
2022-09-02T15:59:57.089Z,19.62
2022-09-02T16:02:23.910Z,19.65
2022-09-02T16:04:50.749Z,19.47
2022-09-02T16:07:17.579Z,19.44
2022-09-02T16:09:44.498Z,19.46
2022-09-02T16:12:11.297Z,19.33
2022-09-02T16:14:38.070Z,19.20
2022-09-02T16:17:05.101Z,19.13
2022-09-02T16:19:32.037Z,19.00
2022-09-02T16:21:59.036Z,19.00
2022-09-02T16:24:26.147Z,18.83
2022-09-02T16:26:53.413Z,18.62
2022-09-02T16:29:21.014Z,18.56
2022-09-02T16:34:36.092Z,18.31
2022-09-02T16:37:03.012Z,18.08
2022-09-02T16:39:29.865Z,18.21
2022-09-02T16:41:57.263Z,18.15
2022-09-02T16:44:25.049Z,18.00
2022-09-02T16:46:52.810Z,17.94
2022-09-02T16:49:20.957Z,17.80
2022-09-02T16:51:49.531Z,17.58
2022-09-02T16:54:21.251Z,17.59
2022-09-02T16:56:59.015Z,17.36
2022-09-02T16:59:25.799Z,17.47
2022-09-02T17:01:52.580Z,17.51
2022-09-02T17:04:19.477Z,17.36
2022-09-02T17:06:46.263Z,17.31
2022-09-02T17:09:13.107Z,17.14
2022-09-02T17:11:41.433Z,17.19
2022-09-02T17:14:18.591Z,17.14
2022-09-02T17:16:47.858Z,16.91
2022-09-02T17:19:21.771Z,17.11
2022-09-02T17:21:53.569Z,16.87
2022-09-02T17:24:24.751Z,16.90
2022-09-02T17:26:54.433Z,16.84
2022-09-02T17:29:48.174Z,16.88
2022-09-02T17:32:10.178Z,16.81
2022-09-02T17:34:37.327Z,16.85
2022-09-02T17:37:05.528Z,16.71
2022-09-02T17:39:34.048Z,16.73
2022-09-02T17:42:01.949Z,16.55
2022-09-02T17:44:37.482Z,16.67
2022-09-02T17:47:15.480Z,16.47
2022-09-02T17:49:44.425Z,16.49
2022-09-02T17:52:13.459Z,16.50
2022-09-02T17:54:41.125Z,16.46
2022-09-02T17:57:46.274Z,16.30
2022-09-02T18:00:22.505Z,16.23
2022-09-02T18:03:24.259Z,16.08
2022-09-02T18:06:20.314Z,16.12
2022-09-02T18:08:55.526Z,16.15
2022-09-02T18:11:22.959Z,16.17
2022-09-02T18:14:01.529Z,16.01
2022-09-02T18:16:41.449Z,15.84
2022-09-02T18:19:19.469Z,15.79
2022-09-02T18:21:53.749Z,15.66
2022-09-02T18:24:26.398Z,15.54
2022-09-02T18:27:06.503Z,15.43
2022-09-02T18:30:06.627Z,15.52
2022-09-02T18:32:48.726Z,15.58
2022-09-02T18:35:32.283Z,15.39
2022-09-02T18:38:07.809Z,15.46
2022-09-02T18:40:44.187Z,15.47
2022-09-02T18:43:19.601Z,15.40
2022-09-02T18:45:54.723Z,15.41
2022-09-02T18:48:26.046Z,15.32
2022-09-02T18:50:57.386Z,15.36
2022-09-02T18:53:31.819Z,15.31
2022-09-02T18:56:04.962Z,15.36
2022-09-02T18:58:47.613Z,15.28
2022-09-02T19:01:18.854Z,15.19
2022-09-02T19:03:45.549Z,15.11
2022-09-02T19:06:17.800Z,15.02
2022-09-02T19:08:45.781Z,15.03
2022-09-02T19:11:15.169Z,14.94
2022-09-02T19:13:48.679Z,14.99
2022-09-02T19:16:26.689Z,14.95
2022-09-02T19:18:53.858Z,14.93
2022-09-02T19:21:25.275Z,14.88
2022-09-02T19:23:52.268Z,14.81
2022-09-02T19:26:18.960Z,14.64
2022-09-02T19:28:46.090Z,14.70
2022-09-02T19:31:19.365Z,14.71
2022-09-02T19:33:46.875Z,14.75
2022-09-02T19:36:15.815Z,14.62
2022-09-02T19:38:42.532Z,14.58
2022-09-02T19:41:09.470Z,14.61
2022-09-02T19:43:36.629Z,14.51
2022-09-02T19:46:03.305Z,14.49
2022-09-02T19:48:30.413Z,14.53
2022-09-02T19:50:57.198Z,14.39
2022-09-02T19:53:30.393Z,14.36
2022-09-02T19:55:58.412Z,14.34
2022-09-02T19:58:26.337Z,14.32
2022-09-02T20:00:54.353Z,14.37
2022-09-02T20:03:21.251Z,14.29
2022-09-02T20:05:52.625Z,14.20
2022-09-02T20:08:20.260Z,14.23
2022-09-02T20:10:55.525Z,14.17
2022-09-02T20:13:23.711Z,14.09
2022-09-02T20:15:51.473Z,14.14
2022-09-02T20:18:21.627Z,14.08
2022-09-02T20:20:50.324Z,14.05
2022-09-02T20:23:18.880Z,14.04
2022-09-02T20:26:23.961Z,14.04
2022-09-02T20:28:56.272Z,13.96
2022-09-02T20:31:50.224Z,13.98
2022-09-02T20:34:44.537Z,13.96
2022-09-02T20:37:29.752Z,13.89
2022-09-02T20:40:04.695Z,13.79
2022-09-02T20:42:49.417Z,13.76
2022-09-02T20:45:39.766Z,13.67
2022-09-02T20:48:39.918Z,13.63
2022-09-02T20:51:20.913Z,13.54
2022-09-02T20:54:01.362Z,13.64
2022-09-02T20:56:40.038Z,13.61
2022-09-02T20:59:28.135Z,13.64
2022-09-02T21:01:55.825Z,13.59
2022-09-02T21:04:25.683Z,13.63
2022-09-02T21:07:00.877Z,13.57
2022-09-02T21:09:46.280Z,13.61
2022-09-02T21:12:36.789Z,13.52
2022-09-02T21:15:23.288Z,13.60
2022-09-02T21:18:27.436Z,13.56
2022-09-02T21:21:02.447Z,13.49
2022-09-02T21:24:28.185Z,13.45
2022-09-02T21:27:03.495Z,13.40
2022-09-02T21:29:34.265Z,13.40
2022-09-02T21:32:14.245Z,13.38
2022-09-02T21:34:50.548Z,13.34
2022-09-02T21:37:20.161Z,13.30
2022-09-02T21:39:54.221Z,13.34
2022-09-02T21:42:30.574Z,13.36
2022-09-02T21:45:16.485Z,13.34
2022-09-02T21:48:02.965Z,13.25
2022-09-02T21:50:45.888Z,13.30
2022-09-02T21:53:21.572Z,13.27
2022-09-02T21:55:54.357Z,13.18
2022-09-02T21:58:52.593Z,13.10
2022-09-02T22:01:21.688Z,13.03
2022-09-02T22:03:55.724Z,12.93
2022-09-02T22:06:30.954Z,12.92
2022-09-02T22:09:04.885Z,12.80
2022-09-02T22:11:35.825Z,12.57
2022-09-02T22:14:16.635Z,12.69
2022-09-02T22:16:54.516Z,12.56
2022-09-02T22:19:23.939Z,12.60
2022-09-02T22:21:54.112Z,12.51
2022-09-02T22:24:28.617Z,12.60
2022-09-02T22:27:17.399Z,12.49
2022-09-02T22:29:46.010Z,12.46
2022-09-02T22:32:20.639Z,12.28
2022-09-02T22:34:52.787Z,12.22
2022-09-02T22:37:23.616Z,12.21
2022-09-02T22:39:56.590Z,12.17
2022-09-02T22:42:40.752Z,12.12
2022-09-02T22:45:50.228Z,12.25
2022-09-02T22:48:36.398Z,12.27
2022-09-02T22:51:27.084Z,12.30
2022-09-02T22:53:53.772Z,12.24
2022-09-02T22:56:30.253Z,12.02
2022-09-02T22:59:05.528Z,12.08
2022-09-02T23:01:44.014Z,12.04
2022-09-02T23:04:32.912Z,12.00
2022-09-02T23:07:01.932Z,12.03
2022-09-02T23:09:28.770Z,11.96
2022-09-02T23:12:13.948Z,11.99
2022-09-02T23:15:04.264Z,11.91
2022-09-02T23:18:03.452Z,11.92
2022-09-02T23:20:56.180Z,11.77
2022-09-02T23:23:53.828Z,11.66
2022-09-02T23:26:34.496Z,11.56
2022-09-02T23:29:24.311Z,11.63
2022-09-02T23:32:09.122Z,11.49
2022-09-02T23:34:48.800Z,11.45
2022-09-02T23:37:36.620Z,11.58
2022-09-02T23:40:12.040Z,11.59
2022-09-02T23:42:39.264Z,11.29
2022-09-02T23:45:22.003Z,11.32
2022-09-02T23:48:19.901Z,11.39
2022-09-02T23:51:24.322Z,11.26
2022-09-02T23:54:15.634Z,11.29
2022-09-02T23:57:04.823Z,11.26
2022-09-02T23:59:51.972Z,11.31
